createdAt,value
2022-12-18T18:18:02.097Z,4.08
2022-12-18T18:20:30.532Z,4.02
2022-12-18T18:22:57.117Z,3.94
2022-12-18T18:25:23.739Z,3.92
2022-12-18T18:27:50.804Z,3.85
2022-12-18T18:30:17.437Z,3.75
2022-12-18T18:32:46.254Z,3.72
2022-12-18T18:35:44.667Z,3.73
2022-12-18T18:37:59.586Z,3.61
2022-12-18T18:40:26.209Z,3.55
2022-12-18T18:42:55.908Z,3.49
2022-12-18T18:45:22.476Z,3.46
2022-12-18T18:47:49.088Z,3.40
2022-12-18T18:50:15.891Z,3.24
2022-12-18T18:52:42.558Z,3.19
2022-12-18T18:55:16.256Z,3.11
2022-12-18T18:57:52.302Z,3.08
2022-12-18T19:00:19.165Z,3.02
2022-12-18T19:02:46.220Z,3.00
2022-12-18T19:05:12.947Z,2.98
2022-12-18T19:07:39.599Z,3.04
2022-12-18T19:10:06.762Z,3.01
2022-12-18T19:12:53.179Z,2.99
2022-12-18T19:15:19.974Z,2.94
2022-12-18T19:17:47.455Z,2.94
2022-12-18T19:20:15.222Z,2.96
2022-12-18T19:22:42.046Z,2.94
2022-12-18T19:25:09.931Z,2.89
2022-12-18T19:27:38.916Z,2.86
2022-12-18T19:30:06.040Z,2.83
2022-12-18T19:32:34.050Z,2.80
2022-12-18T19:35:00.647Z,2.80
2022-12-18T19:37:28.152Z,2.73
2022-12-18T19:39:55.416Z,2.76
2022-12-18T19:42:28.056Z,2.76
2022-12-18T19:44:58.604Z,2.71
2022-12-18T19:47:25.527Z,2.75
2022-12-18T19:49:52.142Z,2.71
2022-12-18T19:52:18.803Z,2.69
2022-12-18T19:54:45.492Z,2.64
2022-12-18T19:57:12.530Z,2.61
2022-12-18T19:59:39.167Z,2.55
2022-12-18T20:02:13.342Z,2.52
2022-12-18T20:04:40.067Z,2.52
2022-12-18T20:07:06.799Z,2.50
2022-12-18T20:09:33.526Z,2.50
2022-12-18T20:12:00.383Z,2.43
2022-12-18T20:14:26.987Z,2.39
2022-12-18T20:16:54.374Z,2.34
2022-12-18T20:19:22.171Z,2.22
2022-12-18T20:21:49.239Z,2.17
2022-12-18T20:24:15.894Z,2.14
2022-12-18T20:26:42.481Z,2.09
2022-12-18T20:29:09.365Z,2.08
2022-12-18T20:31:35.987Z,2.09
2022-12-18T20:34:04.869Z,2.11
2022-12-18T20:36:35.246Z,2.16
2022-12-18T20:39:05.428Z,2.17
2022-12-18T20:41:37.332Z,2.15
2022-12-18T20:44:09.571Z,2.12
2022-12-18T20:46:50.623Z,2.07
2022-12-18T20:49:17.296Z,2.03
2022-12-18T20:51:43.967Z,2.02
2022-12-18T20:54:12.012Z,1.93
2022-12-18T20:56:38.696Z,1.92
2022-12-18T20:59:05.218Z,1.95
2022-12-18T21:01:31.891Z,1.95
2022-12-18T21:03:59.157Z,1.90
2022-12-18T21:06:26.489Z,1.90
2022-12-18T21:08:53.049Z,1.89
2022-12-18T21:11:37.853Z,1.84
2022-12-18T21:14:12.069Z,1.87
2022-12-18T21:16:40.150Z,1.84
2022-12-18T21:19:07.072Z,1.83
2022-12-18T21:21:36.542Z,1.77
2022-12-18T21:24:05.992Z,1.64
2022-12-18T21:26:32.881Z,1.41
2022-12-18T21:29:01.976Z,1.29
2022-12-18T21:31:34.225Z,1.26
2022-12-18T21:34:02.477Z,1.26
2022-12-18T21:36:30.194Z,1.21
2022-12-18T21:38:58.010Z,1.19
2022-12-18T21:41:43.812Z,1.16
2022-12-18T21:44:15.714Z,1.15
2022-12-18T21:46:51.500Z,1.18
2022-12-18T21:49:23.127Z,1.20
2022-12-18T21:51:51.713Z,1.23
2022-12-18T21:54:19.602Z,1.17
2022-12-18T21:56:56.132Z,1.19
2022-12-18T21:59:34.500Z,1.11
2022-12-18T22:02:09.900Z,1.07
2022-12-18T22:04:36.797Z,1.00
2022-12-18T22:07:05.158Z,1.04
2022-12-18T22:09:32.207Z,1.03
2022-12-18T22:11:59.200Z,1.02
2022-12-18T22:14:25.982Z,0.95
2022-12-18T22:16:52.882Z,0.94
2022-12-18T22:19:20.340Z,0.93
2022-12-18T22:21:48.710Z,0.96
2022-12-18T22:24:18.023Z,1.00
2022-12-18T22:26:46.556Z,0.99
2022-12-18T22:29:37.362Z,0.99
2022-12-18T22:32:05.321Z,0.98
2022-12-18T22:34:36.611Z,1.00
2022-12-18T22:37:04.045Z,0.99
2022-12-18T22:39:31.395Z,1.00
2022-12-18T22:41:58.638Z,0.99
2022-12-18T22:44:25.571Z,0.97
2022-12-18T22:47:05.746Z,0.92
2022-12-18T22:49:35.377Z,0.87
2022-12-18T22:52:03.719Z,0.88
2022-12-18T22:54:30.343Z,0.78
2022-12-18T22:56:57.125Z,0.69
2022-12-18T22:59:24.119Z,0.69
2022-12-18T23:01:58.647Z,0.67
2022-12-18T23:04:31.995Z,0.65
2022-12-18T23:07:05.242Z,0.71
2022-12-18T23:09:32.233Z,0.73
2022-12-18T23:11:59.052Z,0.76
2022-12-18T23:14:26.143Z,0.73
2022-12-18T23:16:53.148Z,0.75
2022-12-18T23:19:20.137Z,0.75
2022-12-18T23:21:47.675Z,0.78
2022-12-18T23:24:15.052Z,0.80
2022-12-18T23:26:42.873Z,0.89
2022-12-18T23:29:09.691Z,0.87
2022-12-18T23:31:38.629Z,0.94
2022-12-18T23:34:06.250Z,1.03
2022-12-18T23:36:38.417Z,1.10
2022-12-18T23:39:17.197Z,1.17
2022-12-18T23:41:56.455Z,1.26
2022-12-18T23:44:23.103Z,1.28
2022-12-18T23:46:49.802Z,1.33
2022-12-18T23:49:16.498Z,1.38
2022-12-18T23:51:43.492Z,1.40
2022-12-18T23:54:10.772Z,1.38
2022-12-18T23:56:37.693Z,1.37
2022-12-18T23:59:04.669Z,1.38
